createdAt,value
2022-12-09T00:02:15.159Z,12.88
2022-12-09T00:04:42.248Z,14.52
2022-12-09T00:07:08.988Z,13.98
2022-12-09T00:09:35.608Z,15.23
2022-12-09T00:12:02.152Z,12.23
2022-12-09T00:14:29.162Z,14.35
2022-12-09T00:16:55.977Z,14.20
2022-12-09T00:19:22.803Z,13.70
2022-12-09T00:21:49.393Z,13.63
2022-12-09T00:24:16.144Z,15.45
2022-12-09T00:26:42.963Z,14.70
2022-12-09T00:29:10.514Z,13.98
2022-12-09T00:31:38.748Z,13.73
2022-12-09T00:34:10.858Z,13.93
2022-12-09T00:36:38.545Z,13.35
2022-12-09T00:39:05.410Z,13.98
2022-12-09T00:41:32.097Z,13.80
2022-12-09T00:43:58.917Z,14.45
2022-12-09T00:46:26.191Z,14.52
2022-12-09T00:48:52.973Z,14.90
2022-12-09T00:51:24.285Z,15.15
2022-12-09T00:53:56.012Z,14.27
2022-12-09T00:56:28.319Z,13.82
2022-12-09T00:58:57.413Z,13.10
2022-12-09T01:01:25.427Z,13.20
2022-12-09T01:03:52.240Z,14.48
2022-12-09T01:06:22.093Z,14.20
2022-12-09T01:08:49.233Z,13.52
2022-12-09T01:11:19.057Z,13.40
2022-12-09T01:13:46.135Z,13.15
2022-12-09T01:16:17.403Z,14.10
2022-12-09T01:18:45.591Z,13.88
2022-12-09T01:21:12.866Z,12.82
2022-12-09T01:23:40.644Z,11.60
2022-12-09T01:26:10.699Z,14.25
2022-12-09T01:28:39.166Z,13.50
2022-12-09T01:31:12.616Z,12.80
2022-12-09T01:33:40.838Z,12.73
2022-12-09T01:36:10.749Z,13.85
2022-12-09T01:38:37.705Z,14.25
2022-12-09T01:41:06.102Z,14.13
2022-12-09T01:43:33.012Z,13.20
2022-12-09T01:45:59.865Z,13.23
2022-12-09T01:48:43.459Z,13.65
2022-12-09T01:51:16.382Z,12.13
2022-12-09T01:53:46.533Z,13.27
2022-12-09T01:56:25.169Z,13.75
2022-12-09T01:58:54.355Z,13.77
2022-12-09T02:01:22.394Z,12.90
2022-12-09T02:03:49.605Z,13.90
2022-12-09T02:06:17.393Z,11.95
2022-12-09T02:08:46.401Z,12.13
2022-12-09T02:11:25.534Z,12.05
2022-12-09T02:14:02.746Z,11.57
2022-12-09T02:16:36.635Z,12.93
2022-12-09T02:19:29.782Z,13.85
2022-12-09T02:21:59.427Z,11.02
2022-12-09T02:24:32.801Z,14.45
2022-12-09T02:27:05.006Z,13.15
2022-12-09T02:29:54.056Z,12.88
2022-12-09T02:32:51.539Z,12.75
2022-12-09T02:35:33.099Z,13.93
2022-12-09T02:38:09.156Z,12.93
2022-12-09T02:40:53.138Z,12.63
2022-12-09T02:43:26.039Z,12.38
2022-12-09T02:45:56.063Z,13.60
2022-12-09T02:48:27.076Z,13.55
2022-12-09T02:50:57.751Z,14.52
2022-12-09T02:53:26.473Z,14.07
2022-12-09T02:55:56.212Z,14.18
2022-12-09T02:58:23.017Z,14.25
2022-12-09T03:00:52.258Z,13.55
2022-12-09T03:03:19.358Z,15.00
2022-12-09T03:06:04.611Z,14.35
2022-12-09T03:08:51.781Z,15.45
2022-12-09T03:11:21.977Z,15.00
2022-12-09T03:14:06.924Z,14.93
2022-12-09T03:16:37.813Z,14.13
2022-12-09T03:19:23.086Z,15.02
2022-12-09T03:21:54.250Z,15.25
2022-12-09T03:24:49.763Z,16.42
2022-12-09T03:27:24.794Z,15.23
2022-12-09T03:29:52.153Z,15.45
2022-12-09T03:32:23.202Z,15.43
2022-12-09T03:34:51.420Z,16.02
2022-12-09T03:37:21.181Z,15.13
2022-12-09T03:39:49.521Z,16.25
2022-12-09T03:42:21.358Z,15.35
2022-12-09T03:44:56.753Z,15.48
2022-12-09T03:47:23.704Z,14.82
2022-12-09T03:49:50.713Z,16.33
2022-12-09T03:52:26.608Z,16.00
2022-12-09T03:55:09.410Z,17.52
2022-12-09T03:57:40.489Z,16.45
2022-12-09T04:00:08.403Z,17.13
2022-12-09T04:02:41.890Z,14.13
2022-12-09T04:05:09.383Z,16.17
2022-12-09T04:07:42.491Z,16.27
2022-12-09T04:10:13.851Z,16.33
2022-12-09T04:12:43.912Z,14.85
2022-12-09T04:15:11.022Z,15.65
2022-12-09T04:17:37.920Z,15.85
2022-12-09T04:20:06.630Z,16.55
2022-12-09T04:22:33.614Z,18.42
2022-12-09T04:25:00.200Z,16.23
2022-12-09T04:27:26.923Z,16.27
2022-12-09T04:29:55.287Z,16.85
2022-12-09T04:32:22.296Z,17.45
2022-12-09T04:34:48.974Z,14.77
2022-12-09T04:37:16.047Z,17.77
2022-12-09T04:39:42.819Z,17.90
2022-12-09T04:42:09.504Z,27.98
2022-12-09T04:44:36.471Z,20.45
2022-12-09T04:47:04.719Z,18.92
2022-12-09T04:49:31.679Z,19.90
2022-12-09T04:51:58.770Z,19.15
2022-12-09T04:54:25.501Z,17.35
2022-12-09T04:56:52.159Z,17.67
2022-12-09T04:59:18.778Z,18.88
2022-12-09T05:01:47.124Z,17.55
2022-12-09T05:04:14.075Z,16.95
2022-12-09T05:06:40.939Z,19.65
2022-12-09T05:09:13.832Z,16.55
2022-12-09T05:11:41.186Z,17.73
2022-12-09T05:14:09.036Z,19.17
2022-12-09T05:16:36.034Z,16.85
2022-12-09T05:19:03.418Z,16.55
2022-12-09T05:21:30.846Z,16.55
2022-12-09T05:23:58.377Z,16.75
2022-12-09T05:26:25.143Z,17.48
2022-12-09T05:28:52.588Z,16.45
2022-12-09T05:31:22.764Z,15.35
2022-12-09T05:33:50.741Z,17.33
2022-12-09T05:36:21.060Z,16.45
2022-12-09T05:38:49.017Z,15.18
2022-12-09T05:41:16.527Z,15.57
2022-12-09T05:43:43.480Z,16.08
2022-12-09T05:46:11.495Z,17.90
2022-12-09T05:48:38.372Z,16.23
2022-12-09T05:51:27.071Z,16.95
2022-12-09T05:53:54.853Z,15.82
2022-12-09T05:56:24.318Z,14.88
2022-12-09T05:58:53.520Z,16.00
2022-12-09T06:01:20.823Z,15.68
2022-12-09T06:03:49.269Z,15.05
2022-12-09T06:06:18.978Z,15.85
2022-12-09T06:08:46.535Z,15.70
2022-12-09T06:11:20.881Z,15.88
2022-12-09T06:13:49.073Z,17.40
2022-12-09T06:16:19.664Z,15.15
2022-12-09T06:18:47.703Z,16.25
2022-12-09T06:21:16.394Z,16.75
2022-12-09T06:23:43.606Z,16.10
2022-12-09T06:26:29.937Z,15.40
2022-12-09T06:28:58.432Z,17.08
2022-12-09T06:31:26.704Z,17.30
2022-12-09T06:33:55.904Z,17.08
2022-12-09T06:36:25.396Z,18.02
2022-12-09T06:38:52.705Z,16.92
2022-12-09T06:41:19.445Z,16.15
2022-12-09T06:43:46.282Z,20.33
2022-12-09T06:46:25.191Z,17.48
2022-12-09T06:48:53.869Z,17.38
2022-12-09T06:51:22.849Z,14.23
2022-12-09T06:53:50.035Z,17.30
2022-12-09T06:56:16.971Z,17.45
2022-12-09T06:58:53.501Z,17.20
2022-12-09T07:01:25.109Z,15.23
2022-12-09T07:03:55.694Z,15.60
2022-12-09T07:06:31.089Z,18.77
2022-12-09T07:09:02.421Z,16.30
2022-12-09T07:11:30.248Z,16.85
2022-12-09T07:13:57.412Z,16.50
2022-12-09T07:16:24.815Z,13.90
2022-12-09T07:18:52.012Z,15.90
2022-12-09T07:21:20.241Z,16.60
2022-12-09T07:23:47.867Z,13.93
2022-12-09T07:26:15.151Z,14.98
2022-12-09T07:28:42.678Z,14.65
2022-12-09T07:31:25.184Z,15.15
2022-12-09T07:33:54.331Z,16.42
2022-12-09T07:36:22.583Z,16.08
2022-12-09T07:38:54.581Z,16.65
2022-12-09T07:41:21.782Z,20.38
2022-12-09T07:43:48.982Z,19.33
2022-12-09T07:46:18.207Z,16.38
2022-12-09T07:48:45.795Z,15.63
2022-12-09T07:51:12.689Z,15.38
2022-12-09T07:53:39.915Z,16.67
2022-12-09T07:56:12.483Z,16.23
2022-12-09T07:58:39.100Z,16.27
2022-12-09T08:01:15.381Z,19.45
2022-12-09T08:03:42.974Z,18.65
2022-12-09T08:06:18.697Z,18.05
2022-12-09T08:08:46.788Z,15.70
2022-12-09T08:11:20.680Z,16.30
2022-12-09T08:13:48.270Z,17.05
2022-12-09T08:16:19.749Z,15.35
2022-12-09T08:18:50.472Z,13.93
2022-12-09T08:21:23.363Z,15.90
2022-12-09T08:23:50.931Z,16.15
2022-12-09T08:26:21.397Z,15.38
2022-12-09T08:28:49.673Z,15.13
2022-12-09T08:31:23.760Z,15.73
2022-12-09T08:33:52.203Z,12.77
2022-12-09T08:36:21.853Z,14.95
2022-12-09T08:38:51.022Z,16.27
2022-12-09T08:41:23.744Z,15.55
2022-12-09T08:43:50.711Z,14.85
2022-12-09T08:46:17.875Z,15.13
2022-12-09T08:48:45.178Z,14.20
2022-12-09T08:51:12.576Z,14.80
2022-12-09T08:53:39.917Z,15.82
2022-12-09T08:56:11.855Z,16.75
2022-12-09T08:58:39.584Z,15.55
2022-12-09T09:01:07.363Z,16.30
2022-12-09T09:03:34.388Z,16.08
2022-12-09T09:06:09.193Z,15.50
2022-12-09T09:08:38.401Z,16.00
2022-12-09T09:11:19.675Z,14.32
2022-12-09T09:13:48.948Z,15.63
2022-12-09T09:16:18.555Z,15.60
2022-12-09T09:18:45.864Z,15.23
2022-12-09T09:21:16.064Z,14.30
2022-12-09T09:23:43.826Z,14.57
2022-12-09T09:26:15.907Z,13.32
2022-12-09T09:28:43.289Z,12.30
2022-12-09T09:31:12.944Z,12.68
2022-12-09T09:33:40.784Z,11.65
2022-12-09T09:36:10.880Z,12.70
2022-12-09T09:38:38.510Z,12.93
2022-12-09T09:41:20.218Z,12.85
2022-12-09T09:43:47.831Z,11.48
2022-12-09T09:46:31.761Z,13.07
2022-12-09T09:49:00.288Z,11.77
2022-12-09T09:51:28.649Z,10.95
2022-12-09T09:53:55.559Z,10.88
2022-12-09T09:56:53.180Z,10.60
2022-12-09T09:59:37.619Z,10.52
2022-12-09T10:02:37.358Z,10.40
2022-12-09T10:05:19.848Z,10.27
2022-12-09T10:07:54.972Z,10.77
2022-12-09T10:10:30.776Z,10.35
2022-12-09T10:13:29.690Z,10.88
2022-12-09T10:16:12.187Z,9.60
2022-12-09T10:18:57.181Z,9.82
2022-12-09T10:21:29.471Z,9.80
2022-12-09T10:23:57.750Z,11.55
2022-12-09T10:26:29.281Z,10.75
2022-12-09T10:29:15.495Z,10.85
2022-12-09T10:31:43.634Z,13.75
2022-12-09T10:34:12.020Z,12.73
2022-12-09T10:36:46.033Z,11.88
2022-12-09T10:39:21.152Z,11.10
2022-12-09T10:42:12.145Z,10.05
2022-12-09T10:44:39.690Z,9.02
2022-12-09T10:47:24.053Z,9.82
2022-12-09T10:49:52.690Z,10.15
2022-12-09T10:52:30.429Z,9.20
2022-12-09T10:54:58.108Z,8.65
2022-12-09T10:57:28.216Z,9.02
2022-12-09T11:00:08.643Z,8.05
2022-12-09T11:02:35.773Z,10.43
2022-12-09T11:05:23.388Z,9.40
2022-12-09T11:07:53.330Z,9.63
2022-12-09T11:10:25.042Z,8.02
2022-12-09T11:12:55.500Z,7.50
2022-12-09T11:15:22.125Z,10.48
2022-12-09T11:17:56.840Z,7.68
2022-12-09T11:20:27.576Z,5.75
2022-12-09T11:23:13.206Z,6.07
2022-12-09T11:25:56.415Z,5.90
2022-12-09T11:28:27.063Z,5.97
2022-12-09T11:31:33.024Z,5.37
2022-12-09T11:34:06.801Z,5.88
2022-12-09T11:36:45.477Z,6.00
2022-12-09T11:39:31.893Z,6.30
2022-12-09T11:42:17.572Z,5.95
2022-12-09T11:44:56.755Z,5.22
2022-12-09T11:47:57.160Z,6.32
2022-12-09T11:50:32.608Z,5.65
2022-12-09T11:53:11.834Z,6.32
2022-12-09T11:55:43.314Z,9.70
2022-12-09T12:00:58.955Z,5.93
2022-12-09T12:03:39.680Z,6.17
2022-12-09T12:06:16.557Z,6.40
2022-12-09T12:09:07.193Z,6.57
2022-12-09T12:12:02.242Z,7.38
2022-12-09T12:14:30.298Z,6.43
2022-12-09T12:17:19.767Z,6.65
2022-12-09T12:19:50.786Z,7.28
2022-12-09T12:22:29.285Z,6.82
2022-12-09T12:25:17.215Z,6.13
2022-12-09T12:27:44.489Z,7.28
2022-12-09T12:30:14.976Z,7.28
2022-12-09T12:33:59.669Z,6.83
2022-12-09T12:36:17.423Z,7.60
2022-12-09T12:38:51.797Z,5.45
2022-12-09T12:41:53.947Z,6.35
2022-12-09T12:44:45.299Z,7.03
2022-12-09T12:47:40.250Z,6.28
2022-12-09T12:50:15.867Z,7.45
2022-12-09T12:52:56.433Z,6.10
2022-12-09T12:55:46.541Z,6.82
2022-12-09T12:58:40.424Z,5.57
2022-12-09T13:01:32.611Z,6.30
2022-12-09T13:04:14.521Z,5.88
2022-12-09T13:06:51.226Z,5.72
2022-12-09T13:09:24.305Z,6.82
2022-12-09T13:12:15.551Z,9.00
2022-12-09T13:14:53.684Z,6.97
2022-12-09T13:17:25.458Z,8.80
2022-12-09T13:19:55.494Z,8.80
2022-12-09T13:22:51.643Z,6.72
2022-12-09T13:25:31.558Z,8.07
2022-12-09T13:28:09.284Z,7.18
2022-12-09T13:30:54.507Z,8.45
2022-12-09T13:33:39.611Z,10.77
2022-12-09T13:36:38.412Z,6.82
2022-12-09T13:39:05.305Z,8.45
2022-12-09T13:41:52.544Z,8.35
2022-12-09T13:44:25.260Z,7.93
2022-12-09T13:46:51.841Z,6.97
2022-12-09T13:49:26.450Z,9.77
2022-12-09T13:51:55.189Z,8.88
2022-12-09T13:54:29.443Z,9.55
2022-12-09T13:57:27.401Z,8.18
2022-12-09T13:59:58.034Z,7.30
2022-12-09T14:02:54.170Z,8.57
2022-12-09T14:05:25.960Z,9.30
2022-12-09T14:08:21.101Z,7.72
2022-12-09T14:10:50.333Z,7.65
2022-12-09T14:13:31.476Z,9.02
2022-12-09T14:16:31.846Z,11.05
2022-12-09T14:19:18.443Z,10.70
2022-12-09T14:22:17.069Z,9.88
2022-12-09T14:24:49.408Z,12.07
2022-12-09T14:27:24.330Z,12.75
2022-12-09T14:30:24.257Z,8.75
2022-12-09T14:32:50.818Z,7.70
2022-12-09T14:35:22.896Z,6.72
2022-12-09T14:38:13.892Z,6.57
2022-12-09T14:40:43.332Z,7.65
2022-12-09T14:43:28.541Z,8.95
2022-12-09T14:46:18.951Z,8.00
2022-12-09T14:48:54.819Z,8.23
2022-12-09T14:51:30.229Z,8.75
2022-12-09T14:54:01.351Z,8.05
2022-12-09T14:56:30.217Z,9.05
2022-12-09T14:59:04.695Z,7.47
2022-12-09T15:01:52.719Z,9.73
2022-12-09T15:04:32.936Z,9.93
2022-12-09T15:07:15.720Z,10.35
2022-12-09T15:09:53.282Z,10.10
2022-12-09T15:12:36.071Z,11.75
2022-12-09T15:15:20.494Z,9.98
2022-12-09T15:18:01.574Z,10.55
2022-12-09T15:20:35.617Z,14.65
2022-12-09T15:23:06.431Z,12.18
2022-12-09T15:25:42.407Z,10.35
2022-12-09T15:28:24.499Z,10.63
2022-12-09T15:31:01.539Z,10.60
2022-12-09T15:33:30.988Z,12.93
2022-12-09T15:36:11.342Z,11.70
2022-12-09T15:38:45.782Z,10.68
2022-12-09T15:41:30.989Z,10.90
2022-12-09T15:44:02.747Z,11.52
2022-12-09T15:59:20.526Z,13.02
2022-12-09T16:01:53.799Z,12.73
2022-12-09T16:04:25.210Z,13.40
2022-12-09T16:06:52.145Z,12.20
2022-12-09T16:09:22.618Z,14.00
2022-12-09T16:11:53.345Z,14.23
2022-12-09T16:14:21.941Z,14.48
2022-12-09T16:16:56.950Z,13.00
2022-12-09T16:19:23.533Z,12.93
2022-12-09T16:21:53.988Z,14.13
2022-12-09T16:24:21.276Z,13.57
2022-12-09T16:26:50.173Z,12.60
2022-12-09T16:29:27.573Z,11.95
2022-12-09T16:32:19.071Z,10.90
2022-12-09T16:34:48.024Z,10.07
2022-12-09T16:37:26.916Z,10.57
2022-12-09T16:39:53.657Z,11.70
2022-12-09T16:42:28.433Z,10.38
2022-12-09T16:45:33.524Z,10.80
2022-12-09T16:48:00.186Z,10.70
2022-12-09T16:50:30.380Z,10.60
2022-12-09T16:52:58.639Z,11.20
2022-12-09T16:55:27.485Z,11.07
2022-12-09T16:57:54.854Z,10.23
2022-12-09T17:00:21.563Z,10.85
2022-12-09T17:02:49.780Z,11.13
2022-12-09T17:05:16.680Z,10.60
2022-12-09T17:07:43.382Z,10.32
2022-12-09T17:10:13.736Z,9.80
2022-12-09T17:12:40.736Z,10.85
2022-12-09T17:15:07.971Z,12.25
2022-12-09T17:17:34.640Z,14.25
2022-12-09T17:20:01.241Z,12.25
2022-12-09T17:22:27.812Z,10.98
2022-12-09T17:24:54.395Z,11.10
2022-12-09T17:27:21.183Z,12.88
2022-12-09T17:29:48.121Z,11.27
2022-12-09T17:32:14.736Z,12.27
2022-12-09T17:34:41.294Z,11.75
2022-12-09T17:37:07.924Z,11.35
2022-12-09T17:39:35.154Z,11.02
2022-12-09T17:42:02.624Z,10.95
2022-12-09T17:44:29.372Z,10.27
2022-12-09T17:46:56.030Z,10.52
2022-12-09T17:49:22.836Z,12.48
2022-12-09T17:51:49.514Z,11.48
2022-12-09T17:54:16.089Z,11.63
2022-12-09T17:56:46.241Z,11.00
2022-12-09T17:59:16.140Z,11.10
2022-12-09T18:01:46.120Z,11.95
2022-12-09T18:04:14.183Z,11.13
2022-12-09T18:06:45.726Z,11.15
2022-12-09T18:09:15.147Z,11.65
2022-12-09T18:11:43.086Z,12.35
2022-12-09T18:14:10.162Z,13.20
2022-12-09T18:16:37.372Z,12.18
2022-12-09T18:19:07.563Z,13.70
2022-12-09T18:21:34.439Z,16.23
2022-12-09T18:24:00.973Z,13.57
2022-12-09T18:26:32.062Z,17.00
2022-12-09T18:29:00.865Z,18.25
2022-12-09T18:31:28.311Z,13.32
2022-12-09T18:33:54.881Z,13.48
2022-12-09T18:36:24.780Z,13.50
2022-12-09T18:38:53.824Z,14.55
2022-12-09T18:41:29.436Z,13.88
2022-12-09T18:43:57.708Z,14.93
2022-12-09T18:46:33.613Z,12.80
2022-12-09T18:49:03.723Z,13.02
2022-12-09T18:51:31.295Z,13.00
2022-12-09T18:53:58.732Z,12.57
2022-12-09T18:56:26.070Z,10.75
2022-12-09T18:59:09.268Z,11.05
2022-12-09T19:01:39.636Z,11.73
2022-12-09T19:04:13.043Z,11.10
2022-12-09T19:06:41.360Z,9.98
2022-12-09T19:09:11.564Z,10.80
2022-12-09T19:11:40.137Z,11.68
2022-12-09T19:14:07.819Z,11.00
2022-12-09T19:16:35.091Z,12.50
2022-12-09T19:19:09.221Z,13.02
2022-12-09T19:21:37.125Z,11.75
2022-12-09T19:24:03.842Z,12.35
2022-12-09T19:26:32.964Z,11.77
2022-12-09T19:29:05.304Z,13.15
2022-12-09T19:31:37.830Z,11.45
2022-12-09T19:34:15.309Z,11.63
2022-12-09T19:36:42.959Z,11.57
2022-12-09T19:39:10.747Z,13.23
2022-12-09T19:41:38.208Z,14.07
2022-12-09T19:44:09.639Z,14.07
2022-12-09T19:49:05.364Z,14.60
2022-12-09T19:51:32.243Z,15.63
2022-12-09T19:54:01.471Z,16.10
2022-12-09T19:56:28.873Z,14.52
2022-12-09T19:58:55.941Z,13.50
2022-12-09T20:01:33.877Z,14.48
2022-12-09T20:04:25.262Z,12.02
2022-12-09T20:06:54.300Z,11.05
2022-12-09T20:09:24.389Z,11.43
2022-12-09T20:11:52.837Z,20.58
2022-12-09T20:14:20.007Z,18.02
2022-12-09T20:16:46.621Z,13.60
2022-12-09T20:19:13.264Z,12.25
2022-12-09T20:21:40.548Z,10.20
2022-12-09T20:24:08.695Z,9.93
2022-12-09T20:26:37.028Z,9.35
2022-12-09T20:29:06.874Z,8.23
2022-12-09T20:31:35.332Z,8.55
2022-12-09T20:34:14.827Z,8.68
2022-12-09T20:36:43.300Z,9.23
2022-12-09T20:39:18.945Z,10.18
2022-12-09T20:41:47.202Z,9.40
2022-12-09T20:44:14.930Z,11.20
2022-12-09T20:46:45.643Z,10.60
2022-12-09T20:49:12.231Z,12.07
2022-12-09T20:51:40.496Z,10.57
2022-12-09T20:54:08.242Z,11.02
2022-12-09T20:56:35.655Z,10.05
2022-12-09T20:59:02.923Z,9.57
2022-12-09T21:01:32.660Z,11.75
2022-12-09T21:04:01.030Z,10.15
2022-12-09T21:06:31.290Z,9.38
2022-12-09T21:09:02.709Z,11.45
2022-12-09T21:11:29.654Z,9.63
2022-12-09T21:14:02.411Z,11.43
2022-12-09T21:16:31.844Z,10.95
2022-12-09T21:19:03.067Z,11.20
2022-12-09T21:21:31.973Z,11.02
2022-12-09T21:23:59.679Z,10.77
2022-12-09T21:26:26.987Z,11.30
2022-12-09T21:28:54.272Z,13.10
2022-12-09T21:31:31.147Z,12.15
2022-12-09T21:34:01.553Z,13.73
2022-12-09T21:36:34.414Z,12.70
2022-12-09T21:39:02.160Z,10.63
2022-12-09T21:41:31.576Z,9.75
2022-12-09T21:43:58.173Z,11.30
2022-12-09T21:46:27.623Z,12.02
2022-12-09T21:49:01.585Z,11.10
2022-12-09T21:51:30.126Z,11.18
2022-12-09T21:53:58.851Z,11.10
2022-12-09T21:56:27.714Z,12.07
2022-12-09T21:58:57.237Z,12.70
2022-12-09T22:01:26.808Z,11.45
2022-12-09T22:03:54.141Z,12.63
2022-12-09T22:06:20.810Z,11.48
2022-12-09T22:08:47.440Z,12.23
2022-12-09T22:11:25.897Z,12.27
2022-12-09T22:13:53.188Z,11.77
2022-12-09T22:16:22.981Z,11.35
2022-12-09T22:18:52.296Z,11.85
2022-12-09T22:21:25.694Z,12.35
2022-12-09T22:23:58.910Z,12.07
2022-12-09T22:26:26.344Z,13.13
2022-12-09T22:28:53.494Z,12.55
2022-12-09T22:31:25.839Z,13.00
2022-12-09T22:33:56.530Z,13.90
2022-12-09T22:36:23.394Z,12.35
2022-12-09T22:38:50.305Z,13.15
2022-12-09T22:41:20.440Z,12.00
2022-12-09T22:43:48.997Z,12.93
2022-12-09T22:46:20.418Z,12.70
2022-12-09T22:48:47.692Z,12.15
2022-12-09T22:51:21.801Z,12.57
2022-12-09T22:53:50.095Z,11.88
2022-12-09T22:56:16.972Z,12.38
2022-12-09T22:58:43.593Z,14.07
2022-12-09T23:01:12.708Z,18.52
2022-12-09T23:03:39.849Z,16.92
2022-12-09T23:06:07.397Z,14.57
2022-12-09T23:08:34.396Z,14.00
2022-12-09T23:11:07.987Z,13.18
2022-12-09T23:13:40.680Z,13.45
2022-12-09T23:16:09.374Z,13.98
2022-12-09T23:18:36.204Z,13.02
2022-12-09T23:21:11.385Z,13.50
2022-12-09T23:23:38.096Z,12.77
2022-12-09T23:26:06.959Z,14.45
2022-12-09T23:28:38.440Z,13.57
2022-12-09T23:33:33.855Z,12.70
2022-12-09T23:36:13.219Z,13.88
2022-12-09T23:38:42.309Z,13.73
2022-12-09T23:41:10.259Z,14.05
2022-12-09T23:43:38.071Z,13.85
2022-12-09T23:46:14.469Z,13.45
2022-12-09T23:48:48.269Z,12.30
2022-12-09T23:51:19.094Z,12.13
2022-12-09T23:53:48.225Z,12.52
2022-12-09T23:56:20.271Z,11.95
2022-12-09T23:58:47.676Z,12.02
